Time;durP1;ratioP1;P1;durP2;ratioP2;P2;SDS_P1;SDS_P2;PMS_P1;PMS_P2;Temp;Humidity;BMP_temperature;BMP_pressure;BME280_temperature;BME280_humidity;BME280_pressure;Samples;Min_cycle;Max_cycle;Signal;HPM_P1;HPM_P2
2023/09/22 00:01:23;;;;;;;1.40;0.70;;;;;;;;;;5026365;28;20147;-71
2023/09/22 00:03:48;;;;;;;1.40;0.57;;;;;;;;;;5038695;28;20052;-71
2023/09/22 00:06:14;;;;;;;0.88;0.60;;;;;;;;;;5036731;28;20091;-71
2023/09/22 00:08:40;;;;;;;0.70;0.55;;;;;;;;;;5036448;28;20124;-71
2023/09/22 00:11:07;;;;;;;1.30;0.70;;;;;;;;;;5033763;28;20510;-71
2023/09/22 00:13:32;;;;;;;1.70;0.50;;;;;;;;;;5035412;28;20405;-71
2023/09/22 00:15:58;;;;;;;0.77;0.50;;;;;;;;;;5023150;28;20123;-71
2023/09/22 00:18:23;;;;;;;2.30;0.43;;;;;;;;;;5019621;28;20061;-71
2023/09/22 00:20:48;;;;;;;0.30;0.30;;;;;;;;;;5030229;28;20140;-71
2023/09/22 00:23:15;;;;;;;1.20;0.50;;;;;;;;;;5016792;28;20079;-71
2023/09/22 00:25:40;;;;;;;1.63;0.45;;;;;;;;;;5034219;28;20036;-71
2023/09/22 00:28:07;;;;;;;1.05;0.52;;;;;;;;;;5037468;28;20481;-72
2023/09/22 00:30:32;;;;;;;0.90;0.40;;;;;;;;;;5023245;28;20049;-72
2023/09/22 00:32:58;;;;;;;0.47;0.30;;;;;;;;;;5033151;28;20462;-71
2023/09/22 00:35:24;;;;;;;0.82;0.50;;;;;;;;;;5032486;28;20052;-71
2023/09/22 00:37:50;;;;;;;0.32;0.30;;;;;;;;;;5033695;28;20439;-71
2023/09/22 00:40:15;;;;;;;0.52;0.30;;;;;;;;;;5023560;28;20038;-72
2023/09/22 00:42:41;;;;;;;1.25;0.40;;;;;;;;;;5029135;28;20028;-72
2023/09/22 00:45:07;;;;;;;1.10;0.20;;;;;;;;;;5015681;28;20043;-71
2023/09/22 00:47:33;;;;;;;1.02;0.30;;;;;;;;;;5023165;28;20120;-71
2023/09/22 00:49:59;;;;;;;2.05;0.40;;;;;;;;;;5026207;28;20025;-71
2023/09/22 00:52:25;;;;;;;0.40;0.20;;;;;;;;;;5026890;28;20037;-70
2023/09/22 00:54:51;;;;;;;0.52;0.30;;;;;;;;;;5030218;28;20152;-71
2023/09/22 00:57:18;;;;;;;1.05;0.60;;;;;;;;;;5030466;28;20063;-70
2023/09/22 00:59:46;;;;;;;1.67;0.70;;;;;;;;;;5025554;28;20110;-71
2023/09/22 01:02:11;;;;;;;2.20;0.40;;;;;;;;;;5025814;28;20045;-71
2023/09/22 01:04:37;;;;;;;0.30;0.30;;;;;;;;;;5036866;28;20596;-71
2023/09/22 01:07:03;;;;;;;0.30;0.30;;;;;;;;;;5033651;28;20040;-71
2023/09/22 01:09:29;;;;;;;0.30;0.30;;;;;;;;;;5022915;28;20064;-70
2023/09/22 01:11:54;;;;;;;0.52;0.32;;;;;;;;;;5031805;28;20502;-71
2023/09/22 01:14:20;;;;;;;0.63;0.20;;;;;;;;;;5027178;28;20067;-71
2023/09/22 01:16:45;;;;;;;0.68;0.50;;;;;;;;;;5032997;28;20033;-71
2023/09/22 01:19:16;;;;;;;0.43;0.43;;;;;;;;;;5022643;28;20615;-71
2023/09/22 01:21:44;;;;;;;0.22;0.22;;;;;;;;;;5036222;28;20983;-71
2023/09/22 01:24:11;;;;;;;0.70;0.40;;;;;;;;;;5035895;28;20095;-71
2023/09/22 01:26:38;;;;;;;1.33;0.30;;;;;;;;;;5021841;28;20123;-71
2023/09/22 01:29:04;;;;;;;0.43;0.20;;;;;;;;;;5033233;28;20056;-71
2023/09/22 01:31:29;;;;;;;0.30;0.30;;;;;;;;;;5030660;28;20041;-70
2023/09/22 01:33:55;;;;;;;0.75;0.40;;;;;;;;;;5039773;28;20139;-71
2023/09/22 01:36:20;;;;;;;1.17;0.47;;;;;;;;;;5032999;28;20025;-70
2023/09/22 01:38:46;;;;;;;1.05;0.60;;;;;;;;;;5036518;28;20037;-70
2023/09/22 01:41:11;;;;;;;1.05;0.75;;;;;;;;;;5026475;28;20529;-71
2023/09/22 01:43:38;;;;;;;1.67;0.57;;;;;;;;;;5038342;28;20114;-70
2023/09/22 01:46:05;;;;;;;1.83;0.57;;;;;;;;;;5035564;28;20045;-71
2023/09/22 01:48:31;;;;;;;0.70;0.60;;;;;;;;;;5035477;28;20598;-70
2023/09/22 01:51:02;;;;;;;0.80;0.35;;;;;;;;;;5024806;28;20041;-71
2023/09/22 01:53:28;;;;;;;0.93;0.63;;;;;;;;;;5010918;28;20673;-70
2023/09/22 01:55:54;;;;;;;1.45;0.80;;;;;;;;;;5021929;28;20041;-70
2023/09/22 01:58:20;;;;;;;1.90;0.55;;;;;;;;;;5034496;28;20119;-70
2023/09/22 02:00:45;;;;;;;1.80;0.55;;;;;;;;;;5036361;28;20033;-70
2023/09/22 02:03:11;;;;;;;1.23;0.55;;;;;;;;;;5031665;28;20041;-70
2023/09/22 02:05:36;;;;;;;0.95;0.47;;;;;;;;;;5020754;28;20033;-70
2023/09/22 02:08:02;;;;;;;0.88;0.63;;;;;;;;;;5013971;28;20041;-70
2023/09/22 02:10:27;;;;;;;0.82;0.75;;;;;;;;;;5028233;28;20536;-70
2023/09/22 02:12:53;;;;;;;1.10;0.70;;;;;;;;;;5034919;28;20562;-70
2023/09/22 02:15:18;;;;;;;2.30;0.80;;;;;;;;;;5037377;28;20033;-70
2023/09/22 02:17:46;;;;;;;0.90;0.50;;;;;;;;;;5035621;28;20033;-70
2023/09/22 02:20:22;;;;;;;1.40;0.98;;;;;;;;;;5026486;28;20033;-71
2023/09/22 02:22:48;;;;;;;0.70;0.55;;;;;;;;;;5026943;28;20387;-70
2023/09/22 02:25:15;;;;;;;0.63;0.50;;;;;;;;;;5039587;28;20094;-70
2023/09/22 02:27:41;;;;;;;1.20;0.88;;;;;;;;;;5034990;28;20036;-71
2023/09/22 02:30:08;;;;;;;0.45;0.35;;;;;;;;;;5034077;28;20509;-71
2023/09/22 02:32:36;;;;;;;1.52;0.47;;;;;;;;;;5015144;28;20037;-70
2023/09/22 02:35:01;;;;;;;1.27;0.60;;;;;;;;;;5021671;28;20036;-70
2023/09/22 02:37:29;;;;;;;0.57;0.50;;;;;;;;;;5035440;28;20232;-70
2023/09/22 02:39:55;;;;;;;0.73;0.43;;;;;;;;;;5031351;28;20780;-70
2023/09/22 02:42:20;;;;;;;0.80;0.40;;;;;;;;;;5031551;28;20036;-70
2023/09/22 02:44:45;;;;;;;2.30;0.60;;;;;;;;;;5037325;28;20029;-70
2023/09/22 02:47:11;;;;;;;0.47;0.40;;;;;;;;;;5030806;28;20421;-70
2023/09/22 02:49:36;;;;;;;1.70;0.50;;;;;;;;;;5027457;28;20040;-70
2023/09/22 02:52:02;;;;;;;0.90;0.50;;;;;;;;;;5032991;28;20041;-70
2023/09/22 02:54:29;;;;;;;1.00;0.45;;;;;;;;;;5033925;28;20346;-70
2023/09/22 02:56:55;;;;;;;0.45;0.32;;;;;;;;;;5021840;28;20068;-70
2023/09/22 02:59:22;;;;;;;0.50;0.40;;;;;;;;;;5038309;28;20123;-70
2023/09/22 03:01:47;;;;;;;0.88;0.57;;;;;;;;;;5038215;28;20433;-71
2023/09/22 03:04:13;;;;;;;0.55;0.50;;;;;;;;;;5023595;28;20034;-70
2023/09/22 03:06:39;;;;;;;0.75;0.43;;;;;;;;;;5035981;28;20044;-70
2023/09/22 03:09:07;;;;;;;1.02;0.50;;;;;;;;;;5035442;28;20041;-70
2023/09/22 03:11:33;;;;;;;0.40;0.40;;;;;;;;;;5026412;28;20083;-70
2023/09/22 03:13:59;;;;;;;0.40;0.25;;;;;;;;;;5018770;28;20038;-72
2023/09/22 03:16:27;;;;;;;0.73;0.55;;;;;;;;;;5005671;28;20064;-72
2023/09/22 03:18:52;;;;;;;1.20;0.60;;;;;;;;;;5017152;28;20653;-72
2023/09/22 03:21:22;;;;;;;1.55;0.50;;;;;;;;;;5018298;28;20044;-71
2023/09/22 03:23:48;;;;;;;0.60;0.40;;;;;;;;;;5022269;28;20037;-70
2023/09/22 03:26:15;;;;;;;0.77;0.40;;;;;;;;;;5017609;28;20041;-71
2023/09/22 03:28:41;;;;;;;0.70;0.40;;;;;;;;;;5014671;28;20430;-70
2023/09/22 03:31:06;;;;;;;1.05;0.47;;;;;;;;;;5012625;28;20149;-70
2023/09/22 03:33:31;;;;;;;1.35;0.50;;;;;;;;;;5016841;28;20041;-70
2023/09/22 03:35:57;;;;;;;0.75;0.40;;;;;;;;;;5015006;28;20030;-70
2023/09/22 03:38:22;;;;;;;0.50;0.30;;;;;;;;;;5016396;28;20029;-70
2023/09/22 03:40:48;;;;;;;0.55;0.47;;;;;;;;;;5020289;28;20038;-71
2023/09/22 03:43:13;;;;;;;0.73;0.40;;;;;;;;;;5017961;28;20433;-70
2023/09/22 03:45:39;;;;;;;0.50;0.30;;;;;;;;;;5024924;28;20091;-70
2023/09/22 03:48:05;;;;;;;0.63;0.30;;;;;;;;;;5033242;28;20044;-71
2023/09/22 03:50:31;;;;;;;0.52;0.35;;;;;;;;;;5034202;28;20674;-71
2023/09/22 03:52:56;;;;;;;0.70;0.40;;;;;;;;;;5033813;28;20072;-71
2023/09/22 03:55:22;;;;;;;1.33;0.47;;;;;;;;;;5029103;28;20040;-71
2023/09/22 03:57:47;;;;;;;0.55;0.45;;;;;;;;;;5021718;28;20393;-71
2023/09/22 04:00:23;;;;;;;1.65;0.68;;;;;;;;;;5023596;28;20036;-70
2023/09/22 04:02:49;;;;;;;1.05;0.68;;;;;;;;;;5033358;28;20041;-71
2023/09/22 04:05:15;;;;;;;0.90;0.40;;;;;;;;;;5032305;28;20043;-71
2023/09/22 04:07:41;;;;;;;0.80;0.50;;;;;;;;;;5036649;28;20509;-71
2023/09/22 04:10:08;;;;;;;0.93;0.43;;;;;;;;;;5033390;28;20040;-71
2023/09/22 04:12:35;;;;;;;0.50;0.40;;;;;;;;;;5023415;28;20563;-71
2023/09/22 04:15:05;;;;;;;0.75;0.55;;;;;;;;;;5036062;28;20073;-71
2023/09/22 04:17:32;;;;;;;1.17;0.50;;;;;;;;;;5030145;28;20601;-72
2023/09/22 04:19:58;;;;;;;0.50;0.50;;;;;;;;;;5031995;28;20116;-72
2023/09/22 04:22:23;;;;;;;0.60;0.40;;;;;;;;;;5022521;28;20108;-71
2023/09/22 04:24:59;;;;;;;1.17;0.40;;;;;;;;;;5034573;28;20032;-71
2023/09/22 04:27:28;;;;;;;0.95;0.50;;;;;;;;;;5036452;28;20034;-71
2023/09/22 04:29:54;;;;;;;0.30;0.30;;;;;;;;;;5046523;28;20418;-71
2023/09/22 04:32:21;;;;;;;1.35;0.45;;;;;;;;;;5029600;28;20060;-70
2023/09/22 04:34:48;;;;;;;2.30;0.40;;;;;;;;;;5021612;28;20033;-70
2023/09/22 04:37:15;;;;;;;1.00;0.50;;;;;;;;;;5020849;28;20445;-71
2023/09/22 04:39:40;;;;;;;0.73;0.50;;;;;;;;;;5012332;28;20053;-70
2023/09/22 04:42:06;;;;;;;1.42;0.45;;;;;;;;;;5017661;28;20583;-71
2023/09/22 04:44:31;;;;;;;0.85;0.55;;;;;;;;;;5023737;28;20032;-71
2023/09/22 04:46:56;;;;;;;1.25;0.60;;;;;;;;;;5024782;28;20045;-71
2023/09/22 04:49:22;;;;;;;0.55;0.50;;;;;;;;;;5021358;28;20363;-71
2023/09/22 04:51:48;;;;;;;0.75;0.50;;;;;;;;;;5004654;28;20039;-71
2023/09/22 04:54:13;;;;;;;0.80;0.52;;;;;;;;;;5008314;28;20104;-71
2023/09/22 04:56:38;;;;;;;0.75;0.40;;;;;;;;;;5024126;28;20695;-70
2023/09/22 04:59:04;;;;;;;1.95;0.40;;;;;;;;;;5018424;28;20045;-70
2023/09/22 05:01:32;;;;;;;0.85;0.47;;;;;;;;;;5022039;28;20059;-70
2023/09/22 05:03:58;;;;;;;0.63;0.55;;;;;;;;;;5021915;28;20045;-70
2023/09/22 05:06:23;;;;;;;1.40;0.60;;;;;;;;;;5023326;28;20670;-71
2023/09/22 05:08:49;;;;;;;0.40;0.40;;;;;;;;;;5011149;28;20044;-71
2023/09/22 05:11:14;;;;;;;0.77;0.40;;;;;;;;;;5011106;28;20037;-71
2023/09/22 05:13:39;;;;;;;0.90;0.68;;;;;;;;;;5014949;28;20498;-70
2023/09/22 05:16:06;;;;;;;1.63;0.77;;;;;;;;;;5011090;28;20056;-72
2023/09/22 05:18:32;;;;;;;1.05;0.70;;;;;;;;;;5008231;28;20048;-70
2023/09/22 05:21:01;;;;;;;0.50;0.40;;;;;;;;;;5008513;28;20033;-71
2023/09/22 05:23:32;;;;;;;0.32;0.32;;;;;;;;;;5004500;28;20046;-70
2023/09/22 05:25:57;;;;;;;;;;;;;;;;;;5026149;28;20102;-71
2023/09/22 05:28:23;;;;;;;1.15;0.57;;;;;;;;;;5021996;28;19921;-71
2023/09/22 05:30:48;;;;;;;2.30;0.60;;;;;;;;;;5032678;28;20037;-70
2023/09/22 05:33:13;;;;;;;0.20;0.20;;;;;;;;;;5033584;28;20066;-71
2023/09/22 05:35:39;;;;;;;0.40;0.40;;;;;;;;;;5024715;28;20051;-71
2023/09/22 05:38:05;;;;;;;0.90;0.57;;;;;;;;;;5028917;28;20417;-70
2023/09/22 05:40:36;;;;;;;1.17;0.63;;;;;;;;;;5035146;28;20049;-70
2023/09/22 05:43:05;;;;;;;1.02;0.60;;;;;;;;;;5036625;28;20116;-71
2023/09/22 05:45:33;;;;;;;0.93;0.50;;;;;;;;;;5039489;28;20056;-70
2023/09/22 05:47:59;;;;;;;1.13;0.68;;;;;;;;;;5037612;28;20134;-71
2023/09/22 05:50:24;;;;;;;1.55;0.40;;;;;;;;;;5027633;28;20453;-70
2023/09/22 05:52:50;;;;;;;0.70;0.50;;;;;;;;;;5040377;28;20068;-70
2023/09/22 05:55:16;;;;;;;1.98;0.70;;;;;;;;;;5025613;28;22270;-70
2023/09/22 05:57:42;;;;;;;0.70;0.70;;;;;;;;;;5034939;28;20044;-70
2023/09/22 06:00:15;;;;;;;2.55;0.57;;;;;;;;;;5031523;28;20033;-70
2023/09/22 06:02:40;;;;;;;1.10;0.68;;;;;;;;;;5028175;28;20119;-70
2023/09/22 06:05:09;;;;;;;0.70;0.50;;;;;;;;;;5035604;28;20068;-70
2023/09/22 06:07:35;;;;;;;0.50;0.50;;;;;;;;;;5031290;28;20029;-70
2023/09/22 06:10:05;;;;;;;0.85;0.40;;;;;;;;;;5031514;28;20048;-70
2023/09/22 06:12:30;;;;;;;0.93;0.40;;;;;;;;;;5037951;28;20178;-70
2023/09/22 06:14:56;;;;;;;1.05;0.60;;;;;;;;;;5036041;28;20152;-70
2023/09/22 06:17:21;;;;;;;1.23;0.47;;;;;;;;;;5030297;28;20045;-72
2023/09/22 06:19:46;;;;;;;0.47;0.45;;;;;;;;;;5037547;28;20687;-72
2023/09/22 06:22:12;;;;;;;0.80;0.50;;;;;;;;;;5034373;28;20051;-72
2023/09/22 06:24:38;;;;;;;1.08;0.50;;;;;;;;;;5041940;28;20118;-71
2023/09/22 06:27:03;;;;;;;1.23;0.50;;;;;;;;;;5033874;28;20051;-71
2023/09/22 06:29:28;;;;;;;1.27;0.65;;;;;;;;;;5029361;28;20048;-71
2023/09/22 06:31:54;;;;;;;0.50;0.50;;;;;;;;;;5027195;28;20059;-71
2023/09/22 06:34:21;;;;;;;1.73;0.70;;;;;;;;;;5025230;28;20049;-71
2023/09/22 06:36:46;;;;;;;0.55;0.50;;;;;;;;;;5041418;28;20082;-71
2023/09/22 06:39:12;;;;;;;0.73;0.60;;;;;;;;;;5026880;28;20045;-71
2023/09/22 06:41:37;;;;;;;2.28;0.80;;;;;;;;;;5006030;28;20040;-70
2023/09/22 06:44:03;;;;;;;1.80;0.65;;;;;;;;;;5018954;28;20049;-71
2023/09/22 06:46:29;;;;;;;0.63;0.60;;;;;;;;;;5022632;28;20088;-71
2023/09/22 06:48:56;;;;;;;3.60;1.02;;;;;;;;;;5026867;28;20040;-71
2023/09/22 06:51:21;;;;;;;1.15;0.60;;;;;;;;;;5025010;28;20035;-71
2023/09/22 06:53:47;;;;;;;0.68;0.55;;;;;;;;;;5019051;28;20041;-70
2023/09/22 06:56:13;;;;;;;1.10;0.50;;;;;;;;;;5016131;28;20077;-70
2023/09/22 06:58:40;;;;;;;0.77;0.55;;;;;;;;;;5012510;28;20033;-70
2023/09/22 07:01:10;;;;;;;0.77;0.63;;;;;;;;;;5020669;28;20073;-70
2023/09/22 07:03:45;;;;;;;1.83;0.80;;;;;;;;;;5016134;28;20087;-70
2023/09/22 07:06:14;;;;;;;0.60;0.50;;;;;;;;;;5017326;28;20060;-70
2023/09/22 07:08:41;;;;;;;0.70;0.60;;;;;;;;;;5015400;28;20079;-70
2023/09/22 07:11:08;;;;;;;0.60;0.55;;;;;;;;;;5004234;28;20073;-71
2023/09/22 07:13:37;;;;;;;0.68;0.68;;;;;;;;;;5017478;28;20072;-70
2023/09/22 07:16:03;;;;;;;1.13;1.05;;;;;;;;;;5020035;28;20045;-71
2023/09/22 07:18:29;;;;;;;1.00;0.90;;;;;;;;;;5013812;28;20049;-70
2023/09/22 07:20:54;;;;;;;1.00;0.50;;;;;;;;;;5023046;28;20268;-70
2023/09/22 07:23:21;;;;;;;0.50;0.47;;;;;;;;;;5021833;28;20034;-70
2023/09/22 07:25:59;;;;;;;3.08;0.85;;;;;;;;;;5006711;28;20089;-70
2023/09/22 07:28:25;;;;;;;0.50;0.50;;;;;;;;;;5017062;28;20037;-70
2023/09/22 07:30:51;;;;;;;1.58;0.70;;;;;;;;;;5016539;28;20501;-70
2023/09/22 07:33:17;;;;;;;1.42;0.63;;;;;;;;;;5012627;28;20111;-71
2023/09/22 07:35:43;;;;;;;0.70;0.65;;;;;;;;;;5010195;28;20150;-70
2023/09/22 07:38:08;;;;;;;2.03;0.70;;;;;;;;;;5005451;28;20636;-70
2023/09/22 07:40:34;;;;;;;2.72;0.90;;;;;;;;;;5015836;28;20375;-70
2023/09/22 07:43:00;;;;;;;1.00;0.50;;;;;;;;;;5017346;28;20045;-70
2023/09/22 07:45:25;;;;;;;0.60;0.57;;;;;;;;;;5018565;28;20051;-71
2023/09/22 07:47:51;;;;;;;2.05;0.70;;;;;;;;;;5018089;28;20033;-70
2023/09/22 07:50:17;;;;;;;1.10;0.57;;;;;;;;;;5016604;28;20065;-70
2023/09/22 07:52:43;;;;;;;1.20;0.88;;;;;;;;;;5005186;28;20038;-70
2023/09/22 07:55:09;;;;;;;1.15;0.70;;;;;;;;;;5012966;28;20111;-70
2023/09/22 07:57:35;;;;;;;0.52;0.45;;;;;;;;;;5019114;28;20037;-70
2023/09/22 08:00:01;;;;;;;1.75;0.52;;;;;;;;;;5030162;28;20148;-70
2023/09/22 08:02:26;;;;;;;2.28;0.90;;;;;;;;;;5016363;28;20067;-70
2023/09/22 08:04:52;;;;;;;1.23;0.80;;;;;;;;;;5032871;28;20037;-70
2023/09/22 08:07:17;;;;;;;0.73;0.65;;;;;;;;;;5016361;28;20033;-71
2023/09/22 08:09:42;;;;;;;0.68;0.50;;;;;;;;;;5012529;28;20161;-70
2023/09/22 08:12:08;;;;;;;0.50;0.50;;;;;;;;;;5027676;28;20082;-71
2023/09/22 08:14:35;;;;;;;1.42;0.60;;;;;;;;;;5030549;28;20127;-70
2023/09/22 08:17:06;;;;;;;0.45;0.45;;;;;;;;;;5033263;28;20047;-70
2023/09/22 08:19:31;;;;;;;;;;;;;;;;;;5022250;28;20064;-70
2023/09/22 08:21:57;;;;;;;2.83;0.90;;;;;;;;;;5026061;28;20389;-70
2023/09/22 08:24:22;;;;;;;1.23;0.80;;;;;;;;;;5016539;28;20037;-70
2023/09/22 08:26:49;;;;;;;1.55;0.82;;;;;;;;;;5012747;28;20033;-71
2023/09/22 08:29:14;;;;;;;0.60;0.60;;;;;;;;;;5015290;28;20506;-71
2023/09/22 08:31:40;;;;;;;1.55;0.70;;;;;;;;;;5015872;28;20046;-72
2023/09/22 08:34:06;;;;;;;1.30;0.85;;;;;;;;;;5001743;28;20044;-73
2023/09/22 08:36:33;;;;;;;1.88;1.25;;;;;;;;;;5020773;28;20056;-70
2023/09/22 08:38:59;;;;;;;12.02;5.75;;;;;;;;;;5019817;28;20052;-71
2023/09/22 08:41:26;;;;;;;9.25;4.85;;;;;;;;;;5035638;28;20033;-69
2023/09/22 08:43:53;;;;;;;2.63;1.38;;;;;;;;;;5032208;28;20039;-72
2023/09/22 08:46:19;;;;;;;2.10;1.40;;;;;;;;;;5037756;28;20060;-70
2023/09/22 08:48:45;;;;;;;1.35;1.10;;;;;;;;;;5030132;28;20032;-70
2023/09/22 08:51:10;;;;;;;1.50;1.10;;;;;;;;;;5037005;28;20115;-71
2023/09/22 08:53:36;;;;;;;1.02;0.55;;;;;;;;;;5035616;28;20037;-72
2023/09/22 08:56:04;;;;;;;1.05;0.90;;;;;;;;;;5035938;28;20407;-71
2023/09/22 08:58:29;;;;;;;1.35;0.70;;;;;;;;;;5043522;28;20066;-70
2023/09/22 09:00:55;;;;;;;1.27;0.88;;;;;;;;;;5031445;28;20045;-70
2023/09/22 09:03:20;;;;;;;1.27;1.17;;;;;;;;;;5021285;28;20099;-71
2023/09/22 09:05:47;;;;;;;0.80;0.80;;;;;;;;;;5018433;28;20026;-70
2023/09/22 09:08:17;;;;;;;1.67;1.13;;;;;;;;;;5021942;28;20082;-70
2023/09/22 09:10:45;;;;;;;1.25;1.00;;;;;;;;;;5022708;28;20672;-70
2023/09/22 09:13:15;;;;;;;1.35;0.80;;;;;;;;;;5028325;28;20049;-70
2023/09/22 09:15:54;;;;;;;1.98;1.35;;;;;;;;;;5029389;28;20705;-70
2023/09/22 09:18:21;;;;;;;1.63;1.35;;;;;;;;;;5036646;28;20124;-70
2023/09/22 09:21:05;;;;;;;2.92;1.55;;;;;;;;;;5027883;28;20228;-70
2023/09/22 09:23:31;;;;;;;2.28;0.98;;;;;;;;;;5038686;28;20506;-70
2023/09/22 09:25:56;;;;;;;2.03;1.00;;;;;;;;;;5038303;28;20143;-70
2023/09/22 09:28:23;;;;;;;1.67;1.25;;;;;;;;;;5042089;28;20128;-72
2023/09/22 09:30:59;;;;;;;1.23;0.80;;;;;;;;;;5022495;28;20045;-72
2023/09/22 09:33:30;;;;;;;1.50;0.63;;;;;;;;;;5034214;28;20049;-72
2023/09/22 09:35:56;;;;;;;1.80;1.20;;;;;;;;;;5029676;28;20045;-71
2023/09/22 09:38:29;;;;;;;1.00;0.90;;;;;;;;;;5033534;28;20029;-72
2023/09/22 09:40:56;;;;;;;1.50;0.90;;;;;;;;;;5035979;28;20142;-71
2023/09/22 09:43:21;;;;;;;1.30;1.17;;;;;;;;;;5006835;28;20046;-71
2023/09/22 09:45:56;;;;;;;0.88;0.88;;;;;;;;;;5028234;28;20033;-70
2023/09/22 09:48:23;;;;;;;1.75;0.70;;;;;;;;;;5034565;28;20056;-70
2023/09/22 09:50:51;;;;;;;1.42;1.15;;;;;;;;;;5038384;28;20571;-70
2023/09/22 09:53:26;;;;;;;1.33;1.15;;;;;;;;;;5035576;28;20051;-71
2023/09/22 09:55:58;;;;;;;1.88;1.10;;;;;;;;;;5006630;28;20132;-70
2023/09/22 09:58:26;;;;;;;1.17;0.80;;;;;;;;;;5035540;28;20041;-70
2023/09/22 10:00:52;;;;;;;4.20;1.90;;;;;;;;;;5038345;28;20036;-71
2023/09/22 10:03:20;;;;;;;2.95;1.40;;;;;;;;;;5033180;28;20040;-70
2023/09/22 10:05:49;;;;;;;0.90;0.70;;;;;;;;;;5017304;28;20033;-71
2023/09/22 10:08:17;;;;;;;3.80;2.05;;;;;;;;;;5031176;28;20072;-70
2023/09/22 10:10:43;;;;;;;1.17;1.05;;;;;;;;;;5037215;28;20051;-70
2023/09/22 10:13:09;;;;;;;1.52;1.00;;;;;;;;;;5028402;28;20514;-71
2023/09/22 10:15:53;;;;;;;2.40;1.30;;;;;;;;;;5026539;28;20142;-71
2023/09/22 10:18:41;;;;;;;0.80;0.77;;;;;;;;;;5021920;28;20030;-71
2023/09/22 10:21:07;;;;;;;1.80;1.40;;;;;;;;;;5002098;28;20540;-71
2023/09/22 10:23:32;;;;;;;1.70;1.05;;;;;;;;;;5043225;28;20048;-70
2023/09/22 10:26:13;;;;;;;1.20;1.00;;;;;;;;;;5043973;28;20064;-70
2023/09/22 10:28:39;;;;;;;2.42;1.20;;;;;;;;;;5030015;28;20041;-71
2023/09/22 10:31:05;;;;;;;1.40;1.20;;;;;;;;;;5035920;28;20044;-70
2023/09/22 10:33:32;;;;;;;3.08;1.13;;;;;;;;;;5018046;28;20040;-71
2023/09/22 10:35:58;;;;;;;2.22;1.60;;;;;;;;;;5036134;28;20037;-70
2023/09/22 10:38:24;;;;;;;1.70;1.08;;;;;;;;;;5020794;28;20132;-71
2023/09/22 10:40:59;;;;;;;1.10;1.00;;;;;;;;;;5025988;28;20420;-73
2023/09/22 10:43:26;;;;;;;5.10;1.50;;;;;;;;;;5038787;28;20120;-70
2023/09/22 10:45:52;;;;;;;4.38;1.20;;;;;;;;;;5041294;28;20809;-70
2023/09/22 10:48:18;;;;;;;1.08;1.02;;;;;;;;;;5027811;28;20036;-70
2023/09/22 10:50:49;;;;;;;1.50;1.20;;;;;;;;;;5032160;28;20036;-71
2023/09/22 10:53:15;;;;;;;1.35;1.15;;;;;;;;;;5036576;28;20037;-70
2023/09/22 10:55:42;;;;;;;0.88;0.88;;;;;;;;;;5026273;28;20041;-71
2023/09/22 10:58:09;;;;;;;2.33;1.10;;;;;;;;;;5034398;28;20527;-71
2023/09/22 11:00:41;;;;;;;2.13;0.88;;;;;;;;;;5006176;28;20033;-71
2023/09/22 11:03:12;;;;;;;2.85;0.90;;;;;;;;;;5010010;28;20041;-70
2023/09/22 11:05:41;;;;;;;1.40;1.00;;;;;;;;;;5016527;28;20108;-71
2023/09/22 11:08:15;;;;;;;1.50;0.82;;;;;;;;;;4997562;28;20029;-71
2023/09/22 11:10:47;;;;;;;2.38;0.90;;;;;;;;;;5019092;28;20118;-71
2023/09/22 11:13:14;;;;;;;3.28;0.90;;;;;;;;;;5002852;28;20045;-70
2023/09/22 11:15:50;;;;;;;2.22;0.95;;;;;;;;;;5020797;28;20056;-72
2023/09/22 11:18:32;;;;;;;1.40;1.00;;;;;;;;;;5015763;28;20038;-70
2023/09/22 11:21:05;;;;;;;1.75;1.02;;;;;;;;;;5017861;28;20045;-70
2023/09/22 11:23:31;;;;;;;0.98;0.85;;;;;;;;;;5018229;28;20084;-71
2023/09/22 11:26:08;;;;;;;1.15;0.90;;;;;;;;;;4992365;28;20039;-71
2023/09/22 11:28:35;;;;;;;2.25;1.35;;;;;;;;;;5016641;28;21061;-72
2023/09/22 11:31:14;;;;;;;1.38;0.82;;;;;;;;;;5014846;28;20049;-71
2023/09/22 11:33:44;;;;;;;0.70;0.70;;;;;;;;;;5016583;28;20105;-70
2023/09/22 11:36:11;;;;;;;1.50;1.10;;;;;;;;;;5007957;28;20044;-71
2023/09/22 11:38:39;;;;;;;1.88;1.10;;;;;;;;;;5018687;28;20033;-72
2023/09/22 11:41:08;;;;;;;2.58;0.80;;;;;;;;;;5012424;28;20036;-71
2023/09/22 11:43:36;;;;;;;1.35;1.10;;;;;;;;;;5019062;28;20132;-71
2023/09/22 11:46:08;;;;;;;1.38;1.00;;;;;;;;;;5017425;28;20043;-71
2023/09/22 11:49:05;;;;;;;2.25;0.98;;;;;;;;;;5020236;28;20041;-70
2023/09/22 11:51:52;;;;;;;1.10;0.80;;;;;;;;;;5007085;28;20046;-70
2023/09/22 11:54:19;;;;;;;2.22;1.00;;;;;;;;;;5017131;28;20038;-70
2023/09/22 11:56:46;;;;;;;2.20;1.20;;;;;;;;;;5019444;28;21360;-70
2023/09/22 11:59:17;;;;;;;1.17;0.90;;;;;;;;;;5013277;28;20621;-70
2023/09/22 12:01:45;;;;;;;1.83;1.00;;;;;;;;;;5005964;28;20125;-70
2023/09/22 12:04:10;;;;;;;1.55;0.90;;;;;;;;;;5021692;28;20044;-70
2023/09/22 12:06:37;;;;;;;0.80;0.77;;;;;;;;;;5037955;28;20036;-71
2023/09/22 12:09:04;;;;;;;0.98;0.88;;;;;;;;;;5024021;28;20118;-70
2023/09/22 12:11:29;;;;;;;1.05;0.68;;;;;;;;;;5039583;28;20103;-71
2023/09/22 12:13:55;;;;;;;2.50;0.80;;;;;;;;;;5037680;28;20033;-71
2023/09/22 12:16:20;;;;;;;1.42;1.00;;;;;;;;;;5017049;28;20045;-71
2023/09/22 12:18:45;;;;;;;0.82;0.80;;;;;;;;;;5028419;28;20029;-71
2023/09/22 12:21:12;;;;;;;2.22;1.10;;;;;;;;;;5026285;28;20308;-70
2023/09/22 12:23:38;;;;;;;2.85;0.73;;;;;;;;;;5007466;28;20046;-71
2023/09/22 12:26:03;;;;;;;0.60;0.60;;;;;;;;;;5016640;28;20099;-70
2023/09/22 12:28:29;;;;;;;0.75;0.75;;;;;;;;;;5023994;28;20435;-70
2023/09/22 12:30:55;;;;;;;0.73;0.73;;;;;;;;;;5013833;28;20413;-72
2023/09/22 12:33:20;;;;;;;0.95;0.85;;;;;;;;;;5027128;28;20052;-71
2023/09/22 12:35:52;;;;;;;0.98;0.60;;;;;;;;;;5016154;28;20065;-71
2023/09/22 12:38:17;;;;;;;1.50;1.05;;;;;;;;;;5018818;28;20056;-71
2023/09/22 12:40:43;;;;;;;2.05;1.00;;;;;;;;;;5014755;28;20675;-70
2023/09/22 12:43:10;;;;;;;0.73;0.70;;;;;;;;;;5020476;28;20040;-72
2023/09/22 12:45:35;;;;;;;0.70;0.70;;;;;;;;;;5013372;28;20045;-72
2023/09/22 12:48:01;;;;;;;0.98;0.70;;;;;;;;;;5032203;28;20657;-71
2023/09/22 12:50:27;;;;;;;1.52;0.85;;;;;;;;;;5034793;28;20040;-71
2023/09/22 12:52:53;;;;;;;1.42;0.82;;;;;;;;;;5022283;28;20034;-71
2023/09/22 12:55:19;;;;;;;1.65;1.13;;;;;;;;;;5022816;28;20036;-71
2023/09/22 12:57:44;;;;;;;0.80;0.77;;;;;;;;;;5010598;28;20033;-70
2023/09/22 13:00:11;;;;;;;0.95;0.77;;;;;;;;;;5024158;28;20040;-71
2023/09/22 13:02:39;;;;;;;1.00;0.93;;;;;;;;;;5024519;28;20040;-70
2023/09/22 13:05:05;;;;;;;0.60;0.60;;;;;;;;;;5019216;28;20772;-73
2023/09/22 13:07:30;;;;;;;2.53;0.80;;;;;;;;;;5021063;28;20045;-72
2023/09/22 13:09:56;;;;;;;0.70;0.70;;;;;;;;;;5028439;28;20560;-73
2023/09/22 13:12:21;;;;;;;0.63;0.63;;;;;;;;;;5011911;28;20105;-70
2023/09/22 13:14:51;;;;;;;0.80;0.80;;;;;;;;;;5023554;28;20120;-69
2023/09/22 13:17:17;;;;;;;1.33;1.00;;;;;;;;;;5021923;28;20061;-70
2023/09/22 13:19:42;;;;;;;2.20;0.90;;;;;;;;;;5021412;28;20304;-72
2023/09/22 13:22:08;;;;;;;1.17;0.77;;;;;;;;;;5017766;28;20045;-70
2023/09/22 13:24:33;;;;;;;1.30;0.80;;;;;;;;;;5022494;28;20045;-72
2023/09/22 13:26:58;;;;;;;1.23;0.80;;;;;;;;;;5009731;28;20075;-71
2023/09/22 13:29:24;;;;;;;1.23;0.90;;;;;;;;;;5042983;28;20045;-70
2023/09/22 13:31:49;;;;;;;0.70;0.70;;;;;;;;;;5031672;28;20053;-70
2023/09/22 13:34:15;;;;;;;1.17;0.70;;;;;;;;;;5016403;28;20045;-71
2023/09/22 13:36:41;;;;;;;2.03;0.80;;;;;;;;;;5012446;28;20101;-70
2023/09/22 13:39:06;;;;;;;0.88;0.75;;;;;;;;;;5004295;28;20060;-72
2023/09/22 13:41:34;;;;;;;1.50;0.60;;;;;;;;;;5023563;28;20049;-70
2023/09/22 13:43:59;;;;;;;0.90;0.70;;;;;;;;;;5022977;28;20140;-70
2023/09/22 13:46:25;;;;;;;1.55;0.60;;;;;;;;;;5024931;28;20181;-73
2023/09/22 13:48:51;;;;;;;2.00;1.00;;;;;;;;;;5026641;28;20106;-73
2023/09/22 13:51:17;;;;;;;0.80;0.50;;;;;;;;;;5020162;28;20048;-71
2023/09/22 13:53:44;;;;;;;1.45;0.80;;;;;;;;;;5005468;28;20053;-70
2023/09/22 13:56:17;;;;;;;0.95;0.75;;;;;;;;;;5020926;28;20034;-73
2023/09/22 13:58:47;;;;;;;1.77;0.63;;;;;;;;;;5018975;28;20726;-70
2023/09/22 14:01:14;;;;;;;1.08;0.90;;;;;;;;;;5008526;28;20125;-71
2023/09/22 14:03:41;;;;;;;1.48;0.60;;;;;;;;;;5024129;28;20618;-70
2023/09/22 14:06:13;;;;;;;0.93;0.60;;;;;;;;;;5011209;28;20045;-73
2023/09/22 14:08:40;;;;;;;0.82;0.60;;;;;;;;;;5018743;28;20049;-73
2023/09/22 14:11:06;;;;;;;1.10;0.70;;;;;;;;;;5020406;28;20092;-74
2023/09/22 14:13:31;;;;;;;1.30;0.50;;;;;;;;;;5019795;28;20049;-71
2023/09/22 14:15:57;;;;;;;1.05;0.80;;;;;;;;;;5017285;28;20536;-71
2023/09/22 14:18:23;;;;;;;2.10;0.90;;;;;;;;;;5021187;28;20227;-72
2023/09/22 14:20:49;;;;;;;0.80;0.80;;;;;;;;;;5011105;28;20037;-71
2023/09/22 14:23:14;;;;;;;0.77;0.60;;;;;;;;;;5017369;28;20041;-71
2023/09/22 14:25:39;;;;;;;1.70;0.73;;;;;;;;;;5014428;28;20034;-71
2023/09/22 14:28:05;;;;;;;0.60;0.57;;;;;;;;;;5032283;28;20061;-72
2023/09/22 14:30:31;;;;;;;2.42;0.80;;;;;;;;;;5046867;28;20037;-72
2023/09/22 14:32:56;;;;;;;0.65;0.57;;;;;;;;;;5033954;28;20037;-74
2023/09/22 14:35:26;;;;;;;0.90;0.60;;;;;;;;;;5002160;28;20237;-71
2023/09/22 14:37:52;;;;;;;1.30;0.80;;;;;;;;;;5008889;28;20522;-71
2023/09/22 14:40:17;;;;;;;0.45;0.45;;;;;;;;;;5029959;28;20098;-72
2023/09/22 14:42:43;;;;;;;0.93;0.50;;;;;;;;;;5039536;28;20164;-72